Time;durP1;ratioP1;P1;durP2;ratioP2;P2;SDS_P1;SDS_P2;PMS_P1;PMS_P2;Temp;Humidity;BMP_temperature;BMP_pressure;BME280_temperature;BME280_humidity;BME280_pressure;Samples;Min_cycle;Max_cycle;Signal;HPM_P1;HPM_P2
2021/11/24 00:00:38;;;;;;;32.00;18.35;;;;;;;6.56;100.00;101726.69;4935805;28;20114;-82
2021/11/24 00:03:06;;;;;;;28.60;18.38;;;;;;;6.59;100.00;101729.22;4974190;28;20142;-81
2021/11/24 00:05:33;;;;;;;36.75;19.00;;;;;;;6.59;100.00;101726.63;4940987;28;20035;-82
2021/11/24 00:08:00;;;;;;;30.17;17.45;;;;;;;6.59;100.00;101726.63;4979864;28;20047;-82
2021/11/24 00:10:32;;;;;;;34.28;19.85;;;;;;;6.61;100.00;101716.97;4971079;28;20109;-82
2021/11/24 00:12:59;;;;;;;36.03;18.83;;;;;;;6.58;100.00;101717.06;4975123;28;20138;-81
2021/11/24 00:15:26;;;;;;;30.42;17.70;;;;;;;6.54;100.00;101718.03;4965696;28;20109;-83
2021/11/24 00:17:54;;;;;;;38.83;20.23;;;;;;;6.46;100.00;101715.59;4953464;28;20564;-81
2021/11/24 00:20:21;;;;;;;28.42;17.00;;;;;;;6.51;100.00;101712.84;4987434;28;20074;-84
2021/11/24 00:22:49;;;;;;;28.23;17.38;;;;;;;6.50;100.00;101717.22;4957457;28;20125;-82
2021/11/24 00:25:16;;;;;;;33.42;16.05;;;;;;;6.38;100.00;101719.28;4969373;28;20039;-82
2021/11/24 00:27:43;;;;;;;28.30;16.50;;;;;;;6.46;100.00;101709.50;4956175;28;20143;-82
2021/11/24 00:30:11;;;;;;;27.13;16.95;;;;;;;6.47;100.00;101713.81;4971824;28;20055;-81
2021/11/24 00:32:38;;;;;;;28.05;17.40;;;;;;;6.51;100.00;101718.94;4970475;28;20483;-81
2021/11/24 00:35:07;;;;;;;27.90;16.00;;;;;;;6.47;100.00;101712.06;4966790;28;20130;-81
2021/11/24 00:37:34;;;;;;;24.02;15.45;;;;;;;6.45;100.00;101707.78;4957723;28;20110;-81
2021/11/24 00:40:04;;;;;;;23.27;14.82;;;;;;;6.40;100.00;101701.81;4967329;28;20053;-81
2021/11/24 00:42:32;;;;;;;28.95;15.57;;;;;;;6.39;100.00;101702.69;4959469;28;20047;-81
2021/11/24 00:44:59;;;;;;;27.05;16.08;;;;;;;6.43;100.00;101717.41;4970939;28;20134;-81
2021/11/24 00:47:26;;;;;;;25.05;14.63;;;;;;;6.46;100.00;101712.97;4980974;28;21702;-81
2021/11/24 00:49:54;;;;;;;30.98;15.73;;;;;;;6.48;100.00;101715.53;4989869;28;20069;-82
2021/11/24 00:52:22;;;;;;;26.27;15.48;;;;;;;6.48;100.00;101707.69;4970445;28;20050;-81
2021/11/24 00:54:49;;;;;;;26.52;16.40;;;;;;;6.50;100.00;101711.16;4967656;28;20047;-81
2021/11/24 00:57:21;;;;;;;30.35;16.35;;;;;;;6.45;100.00;101708.66;4977668;28;20599;-82
2021/11/24 00:59:48;;;;;;;29.67;16.70;;;;;;;6.46;100.00;101701.66;4979295;28;20427;-82
2021/11/24 01:02:15;;;;;;;31.92;16.88;;;;;;;6.42;100.00;101698.25;4963421;28;20051;-81
2021/11/24 01:04:43;;;;;;;30.45;16.42;;;;;;;6.49;100.00;101706.81;5007019;28;20053;-80
2021/11/24 01:07:12;;;;;;;28.25;17.75;;;;;;;6.48;100.00;101699.84;4957004;28;20070;-81
2021/11/24 01:09:40;;;;;;;34.08;17.10;;;;;;;6.43;100.00;101699.97;4955150;28;20169;-81
2021/11/24 01:12:07;;;;;;;32.28;17.60;;;;;;;6.42;100.00;101689.53;4989578;28;20502;-81
2021/11/24 01:14:35;;;;;;;29.77;16.63;;;;;;;6.43;100.00;101694.72;4970982;28;20112;-81
2021/11/24 01:17:03;;;;;;;28.95;16.75;;;;;;;6.41;100.00;101691.31;4972633;28;20173;-80
2021/11/24 01:19:30;;;;;;;29.52;17.92;;;;;;;6.46;100.00;101699.03;4953434;28;20122;-81
2021/11/24 01:21:57;;;;;;;28.48;15.88;;;;;;;6.44;100.00;101698.19;4989078;28;20069;-81
2021/11/24 01:24:25;;;;;;;25.10;16.13;;;;;;;6.42;100.00;101693.00;4953093;28;20057;-81
2021/11/24 01:26:52;;;;;;;26.77;15.82;;;;;;;6.41;100.00;101696.53;4988353;28;20109;-81
2021/11/24 01:29:20;;;;;;;26.60;15.10;;;;;;;6.42;100.00;101697.41;4968897;28;20093;-81
2021/11/24 01:31:47;;;;;;;34.50;16.70;;;;;;;6.39;100.00;101707.91;4972943;28;20093;-81
2021/11/24 01:34:15;;;;;;;27.38;15.20;;;;;;;6.38;100.00;101701.84;4974077;28;20102;-82
2021/11/24 01:36:42;;;;;;;30.05;16.17;;;;;;;6.39;100.00;101700.94;4970747;28;20130;-82
2021/11/24 01:39:09;;;;;;;29.50;14.68;;;;;;;6.50;100.00;101693.69;4963568;28;20525;-82
2021/11/24 01:41:37;;;;;;;24.52;14.85;;;;;;;6.45;100.00;101697.31;4964352;28;20053;-82
2021/11/24 01:44:04;;;;;;;23.38;13.90;;;;;;;6.47;100.00;101693.75;4952740;28;20050;-82
2021/11/24 01:46:31;;;;;;;26.15;14.23;;;;;;;6.42;100.00;101703.47;4955808;28;20471;-81
2021/11/24 01:48:59;;;;;;;23.58;13.40;;;;;;;6.41;100.00;101700.91;4972087;28;20078;-82
2021/11/24 01:51:26;;;;;;;26.10;14.55;;;;;;;6.39;100.00;101697.47;4953071;28;20086;-81
2021/11/24 01:53:53;;;;;;;22.63;13.77;;;;;;;6.39;100.00;101690.47;4982182;28;20519;-82
2021/11/24 01:56:21;;;;;;;28.15;14.68;;;;;;;6.42;100.00;101690.41;4973698;28;20054;-82
2021/11/24 01:58:50;;;;;;;21.98;13.60;;;;;;;6.47;100.00;101698.13;4965708;28;20098;-82
2021/11/24 02:01:17;;;;;;;20.77;14.07;;;;;;;6.44;100.00;101696.47;4966377;28;20070;-82
2021/11/24 02:03:45;;;;;;;25.98;14.02;;;;;;;6.37;100.00;101692.28;4986565;28;20077;-82
2021/11/24 02:06:12;;;;;;;27.25;13.98;;;;;;;6.39;100.00;101684.38;4956147;28;20093;-82
2021/11/24 02:08:39;;;;;;;21.35;13.13;;;;;;;6.44;100.00;101687.75;4967814;28;20138;-82
2021/11/24 02:11:07;;;;;;;24.15;14.57;;;;;;;6.38;100.00;101677.44;4983001;23;20086;-65
2021/11/24 02:13:34;;;;;;;30.35;13.98;;;;;;;6.40;100.00;101688.75;5007485;28;20064;-66
2021/11/24 02:16:01;;;;;;;21.33;13.35;;;;;;;6.44;100.00;101675.53;5006176;28;20137;-65
2021/11/24 02:18:28;;;;;;;22.45;13.85;;;;;;;6.38;100.00;101669.59;4991328;28;20056;-65
2021/11/24 02:20:55;;;;;;;23.00;12.60;;;;;;;6.39;100.00;101668.69;5007955;28;20056;-65
2021/11/24 02:23:23;;;;;;;22.55;13.70;;;;;;;6.35;100.00;101670.53;5045725;22;20126;-58
2021/11/24 02:25:50;;;;;;;19.38;12.18;;;;;;;6.34;100.00;101674.03;5015646;28;20053;-61
2021/11/24 02:28:17;;;;;;;19.95;11.98;;;;;;;6.31;100.00;101674.13;5039524;28;20312;-60
2021/11/24 02:30:45;;;;;;;20.83;13.27;;;;;;;6.31;100.00;101663.66;5030770;28;20582;-59
2021/11/24 02:33:12;;;;;;;23.52;12.45;;;;;;;6.38;100.00;101662.59;5029688;28;20628;-60
2021/11/24 02:35:43;;;;;;;19.27;11.82;;;;;;;6.33;100.00;101661.84;5025744;28;20058;-61
2021/11/24 02:38:14;;;;;;;19.30;11.38;;;;;;;6.31;100.00;101668.91;5029443;28;20596;-59
2021/11/24 02:40:42;;;;;;;18.00;11.55;;;;;;;6.29;100.00;101661.06;5029488;28;20067;-58
2021/11/24 02:43:09;;;;;;;16.23;11.38;;;;;;;6.30;100.00;101654.97;5028954;28;20543;-59
2021/11/24 02:45:37;;;;;;;20.85;12.55;;;;;;;6.35;100.00;101644.38;5025900;28;20055;-58
2021/11/24 02:48:05;;;;;;;21.58;11.85;;;;;;;6.31;100.00;101653.22;5032416;28;20576;-58
2021/11/24 02:50:32;;;;;;;19.33;12.55;;;;;;;6.33;100.00;101654.88;5029064;28;20079;-57
2021/11/24 02:53:00;;;;;;;17.65;12.10;;;;;;;6.35;100.00;101657.47;5028486;28;20057;-59
2021/11/24 02:55:27;;;;;;;21.35;11.10;;;;;;;6.32;100.00;101654.91;5027995;28;20049;-59
2021/11/24 02:57:55;;;;;;;22.05;11.27;;;;;;;6.30;100.00;101651.47;5031148;28;20552;-60
2021/11/24 03:00:25;;;;;;;22.38;12.82;;;;;;;6.33;100.00;101654.00;5022758;28;20054;-60
2021/11/24 03:02:53;;;;;;;17.98;11.23;;;;;;;6.34;100.00;101653.09;5029802;28;20073;-58
2021/11/24 03:05:25;;;;;;;20.48;11.70;;;;;;;6.38;100.00;101651.28;5025794;28;20063;-59
2021/11/24 03:07:58;;;;;;;18.38;11.18;;;;;;;6.31;100.00;101645.38;5006740;28;20046;-60
2021/11/24 03:10:26;;;;;;;18.60;11.95;;;;;;;6.26;100.00;101640.25;5025008;28;20049;-59
2021/11/24 03:12:53;;;;;;;21.35;11.02;;;;;;;6.28;100.00;101635.81;5029359;28;20501;-60
2021/11/24 03:15:20;;;;;;;19.38;12.15;;;;;;;6.28;100.00;101634.97;5027970;28;20045;-60
2021/11/24 03:17:49;;;;;;;21.92;12.10;;;;;;;6.32;100.00;101634.00;5031537;28;20042;-59
2021/11/24 03:20:16;;;;;;;19.83;11.55;;;;;;;6.24;100.00;101630.72;5029606;28;20060;-60
2021/11/24 03:22:43;;;;;;;21.40;12.38;;;;;;;6.27;100.00;101639.34;5032535;28;20394;-59
2021/11/24 03:25:12;;;;;;;18.67;11.00;;;;;;;6.29;100.00;101636.69;5028455;28;20090;-61
2021/11/24 03:27:42;;;;;;;24.65;11.63;;;;;;;6.20;100.00;101632.53;5033991;28;20069;-60
2021/11/24 03:30:17;;;;;;;17.23;11.10;;;;;;;6.24;100.00;101628.09;5028838;28;20049;-60
2021/11/24 03:32:44;;;;;;;20.90;12.18;;;;;;;6.29;100.00;101629.69;5032975;28;20045;-59
2021/11/24 03:35:16;;;;;;;19.05;11.50;;;;;;;6.29;100.00;101623.59;5033761;28;20057;-60
2021/11/24 03:37:44;;;;;;;20.70;10.93;;;;;;;6.30;100.00;101630.53;5026221;28;20049;-59
2021/11/24 03:40:14;;;;;;;19.08;11.70;;;;;;;6.24;100.00;101628.94;5029530;28;20132;-59
2021/11/24 03:42:44;;;;;;;23.15;12.10;;;;;;;6.30;100.00;101633.16;5031957;28;20053;-59
2021/11/24 03:45:13;;;;;;;20.40;11.10;;;;;;;6.29;100.00;101623.59;5024078;28;20390;-60
2021/11/24 03:47:42;;;;;;;18.10;10.68;;;;;;;6.20;100.00;101623.84;5028450;28;20042;-57
2021/11/24 03:50:11;;;;;;;17.88;11.55;;;;;;;6.23;100.00;101615.94;5016515;28;20068;-59
2021/11/24 03:52:38;;;;;;;22.60;11.93;;;;;;;6.25;100.00;101614.13;5033729;28;20412;-58
2021/11/24 03:55:07;;;;;;;18.48;10.82;;;;;;;6.20;100.00;101610.75;5028292;28;20064;-57
2021/11/24 03:57:34;;;;;;;21.10;12.27;;;;;;;6.17;100.00;101618.66;5032304;28;20045;-58
2021/11/24 04:00:02;;;;;;;18.17;11.27;;;;;;;6.15;100.00;101616.09;5027433;28;20050;-60
2021/11/24 04:02:29;;;;;;;20.98;11.18;;;;;;;6.14;100.00;101609.16;5026598;28;20057;-59
2021/11/24 04:04:57;;;;;;;22.05;12.00;;;;;;;6.21;100.00;101610.72;5026610;28;20059;-59
2021/11/24 04:07:24;;;;;;;21.45;12.18;;;;;;;6.18;100.00;101605.59;5025842;28;20477;-59
2021/11/24 04:09:51;;;;;;;16.75;11.20;;;;;;;6.17;100.00;101609.09;5028255;28;20068;-59
2021/11/24 04:12:18;;;;;;;15.98;10.88;;;;;;;6.22;100.00;101615.06;5027968;28;20385;-58
2021/11/24 04:14:46;;;;;;;19.42;11.77;;;;;;;6.20;100.00;101606.38;5025735;28;20484;-59
2021/11/24 04:17:13;;;;;;;20.80;11.13;;;;;;;6.21;100.00;101617.69;5028449;28;20054;-60
2021/11/24 04:19:41;;;;;;;20.52;11.02;;;;;;;6.23;100.00;101610.69;5028114;28;20068;-59
2021/11/24 04:22:08;;;;;;;19.52;10.63;;;;;;;6.24;100.00;101604.56;5038570;28;20063;-59
2021/11/24 04:24:37;;;;;;;17.13;9.98;;;;;;;6.25;100.00;101607.13;5033132;28;20408;-59
2021/11/24 04:27:04;;;;;;;18.23;9.85;;;;;;;6.19;100.00;101617.75;5030326;28;20132;-59
2021/11/24 04:29:31;;;;;;;19.17;9.90;;;;;;;6.22;100.00;101620.28;5027733;28;20614;-59
2021/11/24 04:31:58;;;;;;;16.30;9.88;;;;;;;6.23;100.00;101622.00;5028903;28;20516;-57
2021/11/24 04:34:26;;;;;;;22.00;10.98;;;;;;;6.26;100.00;101619.31;5026292;28;20152;-60
2021/11/24 04:36:53;;;;;;;13.43;9.45;;;;;;;6.29;100.00;101618.38;5025248;28;20049;-59
2021/11/24 04:39:21;;;;;;;13.85;10.02;;;;;;;6.29;100.00;101618.38;5029482;28;20057;-57
2021/11/24 04:41:48;;;;;;;15.43;10.05;;;;;;;6.31;100.00;101614.84;5030591;28;20054;-58
2021/11/24 04:44:15;;;;;;;17.92;10.50;;;;;;;6.31;100.00;101611.38;5032623;28;20058;-59
2021/11/24 04:46:42;;;;;;;15.00;9.90;;;;;;;6.29;100.00;101608.78;5024322;28;20422;-60
2021/11/24 04:49:09;;;;;;;15.43;9.85;;;;;;;6.30;100.00;101614.84;5027083;28;20046;-59
2021/11/24 04:51:37;;;;;;;15.55;10.00;;;;;;;6.31;100.00;101612.22;5031531;28;20072;-60
2021/11/24 04:54:04;;;;;;;17.63;9.48;;;;;;;6.30;100.00;101618.34;5028556;28;20041;-59
2021/11/24 04:56:32;;;;;;;18.48;8.55;;;;;;;6.31;100.00;101614.84;5027404;28;20053;-59
2021/11/24 04:59:01;;;;;;;20.35;9.45;;;;;;;6.26;100.00;101613.22;5022093;28;20058;-57
2021/11/24 05:01:28;;;;;;;17.13;9.63;;;;;;;6.28;100.00;101607.06;5027611;28;20055;-60
2021/11/24 05:03:56;;;;;;;15.90;10.02;;;;;;;6.28;100.00;101607.06;5026002;28;20148;-59
2021/11/24 05:06:23;;;;;;;16.50;9.75;;;;;;;6.29;100.00;101607.91;5020182;28;20538;-61
2021/11/24 05:08:51;;;;;;;19.27;10.05;;;;;;;6.30;100.00;101617.47;5023921;28;20049;-59
2021/11/24 05:11:19;;;;;;;14.70;10.07;;;;;;;6.33;100.00;101610.41;5025113;28;20055;-60
2021/11/24 05:13:52;;;;;;;18.15;10.40;;;;;;;6.26;100.00;101613.22;5022413;28;20041;-61
2021/11/24 05:16:21;;;;;;;17.33;10.48;;;;;;;6.28;100.00;101609.69;5031279;28;20521;-61
2021/11/24 05:18:49;;;;;;;14.50;9.68;;;;;;;6.25;100.00;101603.66;5022361;28;20045;-60
2021/11/24 05:21:27;;;;;;;13.85;8.93;;;;;;;6.27;100.00;101599.25;5030106;28;20057;-60
2021/11/24 05:23:57;;;;;;;17.10;9.55;;;;;;;6.26;100.00;101602.75;5023980;28;20045;-59
2021/11/24 05:26:28;;;;;;;17.02;10.15;;;;;;;6.24;100.00;101599.34;5026374;28;20057;-60
2021/11/24 05:28:56;;;;;;;16.20;10.70;;;;;;;6.21;100.00;101602.88;5021872;28;20084;-59
2021/11/24 05:31:24;;;;;;;18.83;10.32;;;;;;;6.22;100.00;101599.38;5023700;28;20046;-60
2021/11/24 05:33:51;;;;;;;20.45;9.43;;;;;;;6.28;100.00;101595.75;5026949;28;20140;-60
2021/11/24 05:36:18;;;;;;;14.30;10.02;;;;;;;6.25;100.00;101594.06;5020241;28;20077;-59
2021/11/24 05:38:48;;;;;;;13.18;9.55;;;;;;;6.27;100.00;101591.41;5020329;28;20131;-59
2021/11/24 05:41:16;;;;;;;15.80;8.85;;;;;;;6.24;100.00;101599.34;5022884;28;20140;-60
2021/11/24 05:43:44;;;;;;;16.33;10.18;;;;;;;6.23;100.00;101600.25;5024396;28;20053;-60
2021/11/24 05:48:43;;;;;;;12.68;8.35;;;;;;;6.21;100.00;101602.00;5024763;28;20085;-59
2021/11/24 05:51:12;;;;;;;12.23;9.10;;;;;;;6.23;100.00;101590.63;5025452;28;20058;-59
2021/11/24 05:53:39;;;;;;;18.95;11.65;;;;;;;6.22;100.00;101593.28;5027381;28;20148;-58
2021/11/24 05:56:06;;;;;;;15.35;10.38;;;;;;;6.31;100.00;101585.22;5027528;28;20057;-58
2021/11/24 05:58:33;;;;;;;18.38;10.57;;;;;;;6.28;100.00;101588.75;5027056;28;20434;-60
2021/11/24 06:01:01;;;;;;;20.35;11.27;;;;;;;6.35;100.00;101599.94;5027260;28;20436;-60
2021/11/24 06:03:28;;;;;;;17.00;10.82;;;;;;;6.28;100.00;101588.75;5019571;28;20057;-58
2021/11/24 06:05:55;;;;;;;18.98;10.40;;;;;;;6.24;100.00;101594.97;5025908;28;20260;-58
2021/11/24 06:08:23;;;;;;;13.68;9.35;;;;;;;6.28;100.00;101599.22;5029486;28;20057;-60
2021/11/24 06:10:50;;;;;;;15.25;9.70;;;;;;;6.21;100.00;101591.56;5031256;28;20135;-59
2021/11/24 06:13:17;;;;;;;16.40;10.85;;;;;;;6.23;100.00;101597.63;5027176;28;20057;-58
2021/11/24 06:15:45;;;;;;;21.65;10.30;;;;;;;6.19;100.00;101604.69;5027224;28;20049;-58
2021/11/24 06:18:12;;;;;;;17.33;9.95;;;;;;;6.13;100.00;101591.78;5027206;28;20068;-55
2021/11/24 06:20:40;;;;;;;12.82;8.95;;;;;;;6.17;100.00;101590.81;5032544;28;20063;-58
2021/11/24 06:23:08;;;;;;;13.75;9.43;;;;;;;6.23;100.00;101593.25;5021346;28;20060;-59
2021/11/24 06:25:36;;;;;;;20.50;10.38;;;;;;;6.21;100.00;101589.78;5022356;28;20142;-58
2021/11/24 06:28:04;;;;;;;19.00;9.98;;;;;;;6.23;100.00;101588.03;5023533;28;20136;-61
2021/11/24 06:30:32;;;;;;;16.35;10.40;;;;;;;6.24;100.00;101587.09;5021307;28;20052;-60
2021/11/24 06:32:59;;;;;;;15.73;10.32;;;;;;;6.25;100.00;101588.81;5025433;28;20104;-59
2021/11/24 06:35:26;;;;;;;18.63;10.98;;;;;;;6.24;100.00;101588.88;5022331;28;20099;-61
2021/11/24 06:37:54;;;;;;;15.40;10.30;;;;;;;6.21;100.00;101583.72;5025028;28;20164;-58
2021/11/24 06:40:21;;;;;;;17.05;11.15;;;;;;;6.28;100.00;101580.91;5026306;28;20053;-60
2021/11/24 06:42:48;;;;;;;18.15;11.50;;;;;;;6.32;100.00;101581.69;5027936;28;20085;-60
2021/11/24 06:45:16;;;;;;;18.80;11.02;;;;;;;6.26;100.00;101590.56;5021831;28;20057;-60
2021/11/24 06:47:43;;;;;;;17.88;11.38;;;;;;;6.30;100.00;101599.16;5027569;28;20056;-59
2021/11/24 06:50:11;;;;;;;23.38;12.98;;;;;;;6.26;100.00;101589.69;5025725;28;20054;-59
2021/11/24 06:52:39;;;;;;;24.67;13.30;;;;;;;6.23;100.00;101592.38;5028961;28;20152;-59
2021/11/24 06:55:08;;;;;;;18.17;11.70;;;;;;;6.31;100.00;101595.69;5026124;28;20061;-58
2021/11/24 06:57:35;;;;;;;21.30;12.20;;;;;;;6.31;100.00;101593.06;5026910;28;20524;-60
2021/11/24 07:00:06;;;;;;;17.13;10.65;;;;;;;6.34;100.00;101593.81;5026075;28;20054;-58
2021/11/24 07:02:34;;;;;;;21.73;12.43;;;;;;;6.44;100.00;101597.06;5028642;28;20217;-59
2021/11/24 07:05:01;;;;;;;17.55;11.88;;;;;;;6.42;100.00;101596.25;5023743;28;20057;-59
2021/11/24 07:07:28;;;;;;;19.40;12.23;;;;;;;6.42;100.00;101592.78;5028409;28;20136;-58
2021/11/24 07:09:56;;;;;;;18.70;11.30;;;;;;;6.43;100.00;101605.78;5026296;28;20088;-59
2021/11/24 07:12:25;;;;;;;18.70;11.65;;;;;;;6.46;100.00;101600.50;5027462;28;20037;-60
2021/11/24 07:14:53;;;;;;;24.95;11.93;;;;;;;6.43;100.00;101611.03;5027067;28;20103;-61
2021/11/24 07:17:22;;;;;;;19.38;12.85;;;;;;;6.38;100.00;101614.66;5030232;28;20057;-59
2021/11/24 07:19:49;;;;;;;18.35;11.75;;;;;;;6.43;100.00;101612.78;5022201;28;20056;-57
2021/11/24 07:22:16;;;;;;;19.52;12.38;;;;;;;6.45;100.00;101606.63;5024383;28;20422;-58
2021/11/24 07:24:43;;;;;;;17.10;12.32;;;;;;;6.49;100.00;101610.03;5025184;28;20053;-59
2021/11/24 07:27:11;;;;;;;17.00;11.38;;;;;;;6.55;100.00;101604.63;5028256;28;20055;-59
2021/11/24 07:29:38;;;;;;;16.88;11.90;;;;;;;6.51;100.00;101611.69;5024876;28;20129;-61
2021/11/24 07:32:05;;;;;;;18.58;12.15;;;;;;;6.59;100.00;101609.75;5028592;28;20438;-61
2021/11/24 07:34:33;;;;;;;18.02;11.30;;;;;;;6.60;100.00;101613.22;5025553;28;20053;-60
2021/11/24 07:37:00;;;;;;;19.15;11.35;;;;;;;6.47;100.00;101615.28;5031199;28;20051;-60
2021/11/24 07:39:28;;;;;;;19.02;12.20;;;;;;;6.42;100.00;101611.06;5023674;28;20053;-58
2021/11/24 07:41:55;;;;;;;21.15;13.40;;;;;;;6.45;100.00;101608.41;5031231;28;20053;-60
2021/11/24 07:44:22;;;;;;;25.35;13.80;;;;;;;6.58;100.00;101612.41;5027121;28;20084;-59
2021/11/24 07:46:49;;;;;;;16.95;11.82;;;;;;;6.57;100.00;101610.66;5024106;28;20533;-60
2021/11/24 07:49:17;;;;;;;18.85;11.32;;;;;;;6.64;100.00;101611.38;5025094;28;20049;-60
2021/11/24 07:51:44;;;;;;;21.27;11.65;;;;;;;6.65;100.00;101605.25;5028639;28;20056;-61
2021/11/24 07:54:13;;;;;;;20.15;12.23;;;;;;;6.61;100.00;101607.06;5030689;28;20156;-62
2021/11/24 07:56:40;;;;;;;17.65;11.70;;;;;;;6.57;100.00;101606.31;5031874;28;20064;-60
2021/11/24 07:59:07;;;;;;;18.35;12.27;;;;;;;6.55;100.00;101602.00;5029621;28;20050;-59
2021/11/24 08:01:34;;;;;;;18.40;12.55;;;;;;;6.51;100.00;101597.75;5031474;28;20041;-60
2021/11/24 08:04:02;;;;;;;17.45;11.18;;;;;;;6.55;100.00;101589.78;5030314;28;20104;-61
2021/11/24 08:06:29;;;;;;;18.60;11.13;;;;;;;6.56;100.00;101591.50;5031661;28;20056;-61
2021/11/24 08:08:57;;;;;;;19.83;12.80;;;;;;;6.65;100.00;101594.78;5031384;28;20098;-60
2021/11/24 08:11:24;;;;;;;17.30;12.55;;;;;;;6.74;100.00;101590.13;5030693;28;20045;-59
2021/11/24 08:13:51;;;;;;;21.27;13.02;;;;;;;6.75;100.00;101599.69;5028543;28;20137;-59
2021/11/24 08:16:18;;;;;;;19.58;12.82;;;;;;;6.77;100.00;101594.44;5030457;28;20421;-60
2021/11/24 08:18:46;;;;;;;18.40;12.45;;;;;;;6.73;100.00;101587.56;5030255;28;20053;-61
2021/11/24 08:21:13;;;;;;;17.65;12.52;;;;;;;6.77;100.00;101587.44;5026610;28;20107;-61
2021/11/24 08:23:41;;;;;;;23.52;13.70;;;;;;;6.78;100.00;101585.69;5028972;28;20664;-61
2021/11/24 08:26:08;;;;;;;20.95;12.82;;;;;;;6.72;100.00;101583.25;5028835;28;20203;-60
2021/11/24 08:28:35;;;;;;;22.52;13.20;;;;;;;6.83;100.00;101591.66;5027479;28;20996;-59
2021/11/24 08:31:03;;;;;;;21.27;12.80;;;;;;;6.75;100.00;101585.75;5033749;28;20053;-59
2021/11/24 08:33:30;;;;;;;17.08;11.50;;;;;;;6.75;100.00;101578.75;5032217;28;20144;-60
2021/11/24 08:35:57;;;;;;;40.22;27.65;;;;;;;6.77;100.00;101586.59;5030600;28;20084;-60
2021/11/24 08:38:24;;;;;;;45.70;26.77;;;;;;;6.85;100.00;101582.00;5027582;28;20129;-60
2021/11/24 08:40:51;;;;;;;44.33;27.48;;;;;;;6.89;100.00;101574.91;5029821;28;20045;-59
2021/11/24 08:43:20;;;;;;;17.80;12.93;;;;;;;7.01;100.00;101582.41;5030043;28;20115;-59
2021/11/24 08:45:47;;;;;;;21.42;12.68;;;;;;;7.13;100.00;101576.84;5026409;28;20050;-59
2021/11/24 08:48:15;;;;;;;17.73;11.20;;;;;;;7.08;100.00;101573.50;5022714;28;20049;-60
2021/11/24 08:50:42;;;;;;;19.75;11.82;;;;;;;7.15;100.00;101579.41;5030466;28;20168;-59
2021/11/24 08:53:09;;;;;;;17.33;10.95;;;;;;;7.19;100.00;101579.25;5036521;28;20084;-60
2021/11/24 08:55:38;;;;;;;18.67;11.18;;;;;;;7.13;100.00;101582.06;5030117;28;20144;-59
2021/11/24 08:58:05;;;;;;;17.58;10.13;;;;;;;7.15;100.00;101577.63;5028837;28;20132;-59
2021/11/24 09:00:32;;;;;;;15.48;9.45;;;;;;;7.07;100.00;101583.13;5028982;28;20049;-60
2021/11/24 09:03:00;;;;;;;15.27;11.45;;;;;;;7.06;100.00;101576.13;5035546;28;20081;-59
2021/11/24 09:05:27;;;;;;;21.25;11.70;;;;;;;6.97;100.00;101580.78;5028028;28;20152;-60
2021/11/24 09:07:55;;;;;;;18.08;10.20;;;;;;;6.97;100.00;101581.63;5034724;28;20054;-59
2021/11/24 09:10:23;;;;;;;16.17;10.48;;;;;;;6.97;100.00;101581.63;5029024;28;20080;-57
2021/11/24 09:12:50;;;;;;;23.20;11.43;;;;;;;6.89;100.00;101583.66;5031156;28;20075;-59
2021/11/24 09:15:17;;;;;;;14.80;10.25;;;;;;;6.84;100.00;101582.88;5026786;28;20413;-59
2021/11/24 09:18:05;;;;;;;18.90;10.93;;;;;;;6.73;100.00;101582.34;5031624;28;20427;-59
2021/11/24 09:20:35;;;;;;;18.40;10.70;;;;;;;6.68;100.00;101579.00;5028858;28;20056;-58
2021/11/24 09:23:04;;;;;;;19.38;10.93;;;;;;;6.62;100.00;101580.03;5023603;28;20053;-62
2021/11/24 09:25:47;;;;;;;14.93;10.13;;;;;;;6.65;100.00;101579.06;5012057;28;20505;-61
2021/11/24 09:28:15;;;;;;;20.60;11.48;;;;;;;6.83;100.00;101581.19;5027330;28;20054;-61
2021/11/24 09:30:42;;;;;;;16.92;11.10;;;;;;;7.08;100.00;101576.97;5025948;28;20065;-61
2021/11/24 09:33:10;;;;;;;18.10;12.05;;;;;;;7.15;100.00;101576.78;5029823;28;20057;-61
2021/11/24 09:35:37;;;;;;;19.33;11.75;;;;;;;7.03;100.00;101575.38;5028572;28;20052;-62
2021/11/24 09:38:06;;;;;;;16.70;10.05;;;;;;;7.03;100.00;101576.25;5029135;28;20062;-62
2021/11/24 09:40:34;;;;;;;19.27;10.52;;;;;;;7.04;100.00;101574.47;5026610;28;20063;-62
2021/11/24 09:43:06;;;;;;;16.52;11.10;;;;;;;7.13;100.00;101562.88;5030101;28;20053;-62
2021/11/24 09:45:35;;;;;;;21.13;11.70;;;;;;;7.14;100.00;101568.06;5025279;28;20064;-61
2021/11/24 09:48:02;;;;;;;17.52;11.02;;;;;;;7.10;100.00;101567.28;5029984;28;20069;-62
2021/11/24 09:50:32;;;;;;;15.60;11.10;;;;;;;7.10;100.00;101564.66;5029389;28;20477;-62
2021/11/24 09:53:00;;;;;;;17.88;12.20;;;;;;;7.14;100.00;101547.13;5028581;28;20057;-62
2021/11/24 09:55:29;;;;;;;18.95;10.57;;;;;;;7.19;100.00;101547.84;5027289;28;20045;-62
2021/11/24 09:57:57;;;;;;;14.27;10.18;;;;;;;7.14;100.00;101554.13;5027835;28;20057;-62
2021/11/24 10:00:28;;;;;;;14.93;10.15;;;;;;;7.08;100.00;101561.25;5026592;28;20083;-61
2021/11/24 10:02:58;;;;;;;15.23;10.00;;;;;;;7.07;100.00;101551.69;5029758;28;20053;-62
2021/11/24 10:05:27;;;;;;;14.75;10.52;;;;;;;7.15;100.00;101547.97;5023887;28;20087;-63
2021/11/24 10:07:54;;;;;;;52.10;34.13;;;;;;;7.18;100.00;101545.28;5029490;28;20132;-62
2021/11/24 10:10:23;;;;;;;24.27;15.60;;;;;;;7.22;100.00;101544.28;5026508;28;20180;-60
2021/11/24 10:12:50;;;;;;;15.23;10.27;;;;;;;7.15;100.00;101535.72;5027380;28;20554;-61
2021/11/24 10:15:36;;;;;;;16.05;10.57;;;;;;;7.18;100.00;101540.88;5026803;28;20057;-62
2021/11/24 10:18:33;;;;;;;18.42;11.48;;;;;;;7.18;100.00;101533.03;5024642;28;20057;-62
2021/11/24 10:21:08;;;;;;;18.38;10.73;;;;;;;7.25;100.00;101534.56;5028315;28;20084;-61
2021/11/24 10:23:37;;;;;;;;;;;;;;;7.17;100.00;101536.56;5027301;28;20084;-62
2021/11/24 10:26:16;;;;;;;22.08;10.80;;;;;;;7.19;100.00;101528.66;5026717;28;20016;-61
2021/11/24 10:29:08;;;;;;;14.40;9.85;;;;;;;7.09;100.00;101523.69;5027989;28;20045;-62
2021/11/24 10:31:50;;;;;;;17.30;10.82;;;;;;;7.11;100.00;101523.63;4993856;28;20171;-62
2021/11/24 10:34:19;;;;;;;18.92;12.30;;;;;;;7.17;100.00;101520.00;5025958;28;20100;-62
2021/11/24 10:36:54;;;;;;;17.73;11.75;;;;;;;7.23;100.00;101519.78;5030640;28;20046;-63
2021/11/24 10:39:22;;;;;;;18.70;12.07;;;;;;;7.26;100.00;101511.84;5027728;28;20061;-63
2021/11/24 10:41:49;;;;;;;22.10;11.93;;;;;;;7.36;100.00;101508.88;5024965;28;20518;-63
2021/11/24 10:44:28;;;;;;;20.23;10.55;;;;;;;7.38;100.00;101500.97;5026496;28;20053;-62
2021/11/24 10:46:56;;;;;;;17.42;10.85;;;;;;;7.60;100.00;101491.50;5028987;28;20085;-63
2021/11/24 10:49:51;;;;;;;19.10;9.68;;;;;;;7.62;100.00;101494.09;5008199;28;20053;-62
2021/11/24 10:52:32;;;;;;;22.83;10.40;;;;;;;7.62;100.00;101494.09;5011546;28;20156;-63
2021/11/24 10:54:59;;;;;;;19.50;10.48;;;;;;;7.46;100.00;101490.25;5026435;28;20128;-63
2021/11/24 10:57:27;;;;;;;19.15;10.98;;;;;;;7.42;100.00;101493.88;5027138;28;20168;-63
2021/11/24 11:00:17;;;;;;;16.15;10.00;;;;;;;7.41;100.00;101487.78;5008287;28;20037;-63
2021/11/24 11:02:46;;;;;;;19.27;9.60;;;;;;;7.44;100.00;101485.06;5029115;28;20041;-63
2021/11/24 11:05:24;;;;;;;17.90;10.07;;;;;;;7.40;100.00;101486.09;5025965;28;20061;-62
2021/11/24 11:07:54;;;;;;;18.15;9.88;;;;;;;7.29;100.00;101481.16;5025719;28;20050;-64
2021/11/24 11:10:26;;;;;;;13.95;9.48;;;;;;;7.44;100.00;101481.59;5025922;28;20057;-62
2021/11/24 11:13:03;;;;;;;13.55;9.32;;;;;;;7.31;100.00;101476.75;5028498;28;20529;-63
2021/11/24 11:15:41;;;;;;;15.65;9.35;;;;;;;7.23;100.00;101478.75;5024789;28;20059;-62
2021/11/24 11:18:26;;;;;;;15.75;8.57;;;;;;;7.17;100.00;101480.72;5008754;28;20141;-62